sensor_id;sensor_type;location;lat;lon;timestamp;pressure;altitude;pressure_sealevel;temperature
19666;BMP180;9980;51.020;7.772;2022-09-17T00:01:28;97054.00;;;14.30
19666;BMP180;9980;51.020;7.772;2022-09-17T00:03:59;97062.00;;;14.30
19666;BMP180;9980;51.020;7.772;2022-09-17T00:06:32;97064.00;;;14.20
19666;BMP180;9980;51.020;7.772;2022-09-17T00:08:59;97067.00;;;14.30
19666;BMP180;9980;51.020;7.772;2022-09-17T00:11:29;97072.00;;;14.30
19666;BMP180;9980;51.020;7.772;2022-09-17T00:14:00;97070.00;;;14.30
19666;BMP180;9980;51.020;7.772;2022-09-17T00:16:39;97064.00;;;14.30
19666;BMP180;9980;51.020;7.772;2022-09-17T00:19:16;97064.00;;;14.30
19666;BMP180;9980;51.020;7.772;2022-09-17T00:21:43;97055.00;;;14.30
19666;BMP180;9980;51.020;7.772;2022-09-17T00:24:13;97053.00;;;14.30
19666;BMP180;9980;51.020;7.772;2022-09-17T00:26:41;97065.00;;;14.30
19666;BMP180;9980;51.020;7.772;2022-09-17T00:29:08;97052.00;;;14.30
19666;BMP180;9980;51.020;7.772;2022-09-17T00:31:37;97050.00;;;14.30
19666;BMP180;9980;51.020;7.772;2022-09-17T00:34:05;97054.00;;;14.30
19666;BMP180;9980;51.020;7.772;2022-09-17T00:36:37;97055.00;;;14.30
19666;BMP180;9980;51.020;7.772;2022-09-17T00:39:07;97053.00;;;14.30
19666;BMP180;9980;51.020;7.772;2022-09-17T00:41:37;97043.00;;;14.30
19666;BMP180;9980;51.020;7.772;2022-09-17T00:44:38;97064.00;;;14.20
19666;BMP180;9980;51.020;7.772;2022-09-17T00:47:45;97048.00;;;14.20
19666;BMP180;9980;51.020;7.772;2022-09-17T00:50:17;97045.00;;;14.20
19666;BMP180;9980;51.020;7.772;2022-09-17T00:52:52;97063.00;;;14.20
19666;BMP180;9980;51.020;7.772;2022-09-17T00:55:32;97059.00;;;14.20
19666;BMP180;9980;51.020;7.772;2022-09-17T00:58:03;97067.00;;;14.20
19666;BMP180;9980;51.020;7.772;2022-09-17T01:00:32;97054.00;;;14.20
19666;BMP180;9980;51.020;7.772;2022-09-17T01:02:59;97058.00;;;14.20
19666;BMP180;9980;51.020;7.772;2022-09-17T01:05:43;97054.00;;;14.10
19666;BMP180;9980;51.020;7.772;2022-09-17T01:08:39;97068.00;;;14.10
19666;BMP180;9980;51.020;7.772;2022-09-17T01:23:04;97071.00;;;14.00
19666;BMP180;9980;51.020;7.772;2022-09-17T01:41:03;97063.00;;;14.00
19666;BMP180;9980;51.020;7.772;2022-09-17T01:43:41;97063.00;;;14.00
19666;BMP180;9980;51.020;7.772;2022-09-17T01:46:28;97051.00;;;14.00
19666;BMP180;9980;51.020;7.772;2022-09-17T01:49:01;97066.00;;;14.00
19666;BMP180;9980;51.020;7.772;2022-09-17T01:51:40;97067.00;;;14.00
19666;BMP180;9980;51.020;7.772;2022-09-17T01:54:30;97066.00;;;14.00
19666;BMP180;9980;51.020;7.772;2022-09-17T01:57:04;97071.00;;;14.10
19666;BMP180;9980;51.020;7.772;2022-09-17T01:59:40;97082.00;;;14.10
19666;BMP180;9980;51.020;7.772;2022-09-17T02:02:19;97086.00;;;14.00
19666;BMP180;9980;51.020;7.772;2022-09-17T02:04:59;97092.00;;;14.00
19666;BMP180;9980;51.020;7.772;2022-09-17T02:07:30;97073.00;;;14.00
19666;BMP180;9980;51.020;7.772;2022-09-17T02:10:48;97075.00;;;14.00
19666;BMP180;9980;51.020;7.772;2022-09-17T02:13:25;97083.00;;;14.00
19666;BMP180;9980;51.020;7.772;2022-09-17T02:16:26;97093.00;;;14.00
19666;BMP180;9980;51.020;7.772;2022-09-17T02:19:20;97086.00;;;14.00
19666;BMP180;9980;51.020;7.772;2022-09-17T02:25:07;97096.00;;;14.10
19666;BMP180;9980;51.020;7.772;2022-09-17T02:30:30;97097.00;;;14.10
19666;BMP180;9980;51.020;7.772;2022-09-17T02:33:00;97076.00;;;14.10
19666;BMP180;9980;51.020;7.772;2022-09-17T02:35:30;97088.00;;;14.10
19666;BMP180;9980;51.020;7.772;2022-09-17T02:37:59;97091.00;;;14.10
19666;BMP180;9980;51.020;7.772;2022-09-17T02:40:31;97096.00;;;14.10
19666;BMP180;9980;51.020;7.772;2022-09-17T02:43:34;97092.00;;;14.10
19666;BMP180;9980;51.020;7.772;2022-09-17T02:51:40;97102.00;;;14.00
19666;BMP180;9980;51.020;7.772;2022-09-17T02:54:49;97091.00;;;14.00
19666;BMP180;9980;51.020;7.772;2022-09-17T03:00:16;97101.00;;;14.00
19666;BMP180;9980;51.020;7.772;2022-09-17T03:03:04;97098.00;;;14.00
19666;BMP180;9980;51.020;7.772;2022-09-17T03:05:34;97101.00;;;14.00
19666;BMP180;9980;51.020;7.772;2022-09-17T03:08:02;97101.00;;;14.00
19666;BMP180;9980;51.020;7.772;2022-09-17T03:10:29;97096.00;;;14.00
19666;BMP180;9980;51.020;7.772;2022-09-17T03:12:59;97085.00;;;14.00
19666;BMP180;9980;51.020;7.772;2022-09-17T03:15:26;97093.00;;;14.10
19666;BMP180;9980;51.020;7.772;2022-09-17T03:17:54;97095.00;;;14.00
19666;BMP180;9980;51.020;7.772;2022-09-17T03:20:21;97098.00;;;14.10
19666;BMP180;9980;51.020;7.772;2022-09-17T03:22:50;97098.00;;;14.10
19666;BMP180;9980;51.020;7.772;2022-09-17T03:25:17;97095.00;;;14.10
19666;BMP180;9980;51.020;7.772;2022-09-17T03:27:44;97098.00;;;14.10
19666;BMP180;9980;51.020;7.772;2022-09-17T03:30:11;97092.00;;;14.10
19666;BMP180;9980;51.020;7.772;2022-09-17T03:32:37;97087.00;;;14.10
19666;BMP180;9980;51.020;7.772;2022-09-17T03:35:05;97085.00;;;14.10
19666;BMP180;9980;51.020;7.772;2022-09-17T03:37:31;97088.00;;;14.10
19666;BMP180;9980;51.020;7.772;2022-09-17T03:39:59;97102.00;;;14.10
19666;BMP180;9980;51.020;7.772;2022-09-17T03:42:26;97087.00;;;14.10
19666;BMP180;9980;51.020;7.772;2022-09-17T03:44:53;97095.00;;;14.10
19666;BMP180;9980;51.020;7.772;2022-09-17T03:47:19;97088.00;;;14.10
19666;BMP180;9980;51.020;7.772;2022-09-17T03:49:46;97089.00;;;14.10
19666;BMP180;9980;51.020;7.772;2022-09-17T03:52:13;97103.00;;;14.10
19666;BMP180;9980;51.020;7.772;2022-09-17T03:54:43;97095.00;;;14.10
19666;BMP180;9980;51.020;7.772;2022-09-17T03:57:10;97097.00;;;14.10
19666;BMP180;9980;51.020;7.772;2022-09-17T03:59:37;97098.00;;;14.10
19666;BMP180;9980;51.020;7.772;2022-09-17T04:02:04;97103.00;;;14.10
19666;BMP180;9980;51.020;7.772;2022-09-17T04:04:31;97099.00;;;14.10
19666;BMP180;9980;51.020;7.772;2022-09-17T04:06:58;97092.00;;;14.10
19666;BMP180;9980;51.020;7.772;2022-09-17T04:09:25;97110.00;;;14.10
19666;BMP180;9980;51.020;7.772;2022-09-17T04:11:52;97114.00;;;14.10
19666;BMP180;9980;51.020;7.772;2022-09-17T04:14:19;97118.00;;;14.10
19666;BMP180;9980;51.020;7.772;2022-09-17T04:16:46;97106.00;;;14.10
19666;BMP180;9980;51.020;7.772;2022-09-17T04:19:13;97106.00;;;14.10
19666;BMP180;9980;51.020;7.772;2022-09-17T04:21:42;97114.00;;;14.10
19666;BMP180;9980;51.020;7.772;2022-09-17T04:24:09;97123.00;;;14.10
19666;BMP180;9980;51.020;7.772;2022-09-17T04:26:36;97118.00;;;14.10
19666;BMP180;9980;51.020;7.772;2022-09-17T04:29:03;97103.00;;;14.10
19666;BMP180;9980;51.020;7.772;2022-09-17T04:31:30;97115.00;;;14.10
19666;BMP180;9980;51.020;7.772;2022-09-17T04:33:57;97114.00;;;14.10
19666;BMP180;9980;51.020;7.772;2022-09-17T04:36:24;97113.00;;;14.10
19666;BMP180;9980;51.020;7.772;2022-09-17T04:38:51;97119.00;;;14.10
19666;BMP180;9980;51.020;7.772;2022-09-17T04:41:19;97129.00;;;14.10
19666;BMP180;9980;51.020;7.772;2022-09-17T04:43:46;97119.00;;;14.10
19666;BMP180;9980;51.020;7.772;2022-09-17T04:46:13;97125.00;;;14.10
19666;BMP180;9980;51.020;7.772;2022-09-17T04:48:40;97117.00;;;14.10
19666;BMP180;9980;51.020;7.772;2022-09-17T04:51:07;97119.00;;;14.10
19666;BMP180;9980;51.020;7.772;2022-09-17T04:53:34;97115.00;;;14.10
19666;BMP180;9980;51.020;7.772;2022-09-17T04:56:01;97122.00;;;14.10
19666;BMP180;9980;51.020;7.772;2022-09-17T04:58:28;97115.00;;;14.10
19666;BMP180;9980;51.020;7.772;2022-09-17T05:00:58;97128.00;;;14.10
19666;BMP180;9980;51.020;7.772;2022-09-17T05:03:25;97128.00;;;14.10
19666;BMP180;9980;51.020;7.772;2022-09-17T05:05:52;97132.00;;;14.10
19666;BMP180;9980;51.020;7.772;2022-09-17T05:08:19;97122.00;;;14.10
19666;BMP180;9980;51.020;7.772;2022-09-17T05:10:50;97132.00;;;14.10
19666;BMP180;9980;51.020;7.772;2022-09-17T05:13:17;97142.00;;;14.10
19666;BMP180;9980;51.020;7.772;2022-09-17T05:15:44;97142.00;;;14.10
19666;BMP180;9980;51.020;7.772;2022-09-17T05:18:11;97136.00;;;14.00
19666;BMP180;9980;51.020;7.772;2022-09-17T05:20:39;97148.00;;;14.10
19666;BMP180;9980;51.020;7.772;2022-09-17T05:23:05;97138.00;;;14.00
19666;BMP180;9980;51.020;7.772;2022-09-17T05:25:33;97135.00;;;14.00
19666;BMP180;9980;51.020;7.772;2022-09-17T05:28:00;97143.00;;;14.00
19666;BMP180;9980;51.020;7.772;2022-09-17T05:30:27;97142.00;;;14.00
19666;BMP180;9980;51.020;7.772;2022-09-17T05:33:03;97149.00;;;14.00
19666;BMP180;9980;51.020;7.772;2022-09-17T05:35:32;97149.00;;;14.00
19666;BMP180;9980;51.020;7.772;2022-09-17T05:38:01;97154.00;;;14.00
19666;BMP180;9980;51.020;7.772;2022-09-17T05:40:30;97153.00;;;14.00
19666;BMP180;9980;51.020;7.772;2022-09-17T05:43:00;97163.00;;;14.00
19666;BMP180;9980;51.020;7.772;2022-09-17T05:45:28;97160.00;;;14.00
19666;BMP180;9980;51.020;7.772;2022-09-17T05:48:00;97164.00;;;14.00
19666;BMP180;9980;51.020;7.772;2022-09-17T05:50:29;97166.00;;;14.00
19666;BMP180;9980;51.020;7.772;2022-09-17T05:52:56;97170.00;;;14.00
19666;BMP180;9980;51.020;7.772;2022-09-17T05:55:23;97167.00;;;14.00
19666;BMP180;9980;51.020;7.772;2022-09-17T05:57:50;97179.00;;;14.00
19666;BMP180;9980;51.020;7.772;2022-09-17T06:00:17;97174.00;;;14.10
19666;BMP180;9980;51.020;7.772;2022-09-17T06:02:45;97174.00;;;14.10
19666;BMP180;9980;51.020;7.772;2022-09-17T06:05:11;97183.00;;;14.10
19666;BMP180;9980;51.020;7.772;2022-09-17T06:07:38;97183.00;;;14.10
19666;BMP180;9980;51.020;7.772;2022-09-17T06:10:06;97194.00;;;14.10
19666;BMP180;9980;51.020;7.772;2022-09-17T06:12:34;97192.00;;;14.10
19666;BMP180;9980;51.020;7.772;2022-09-17T06:15:03;97197.00;;;14.10
19666;BMP180;9980;51.020;7.772;2022-09-17T06:17:34;97192.00;;;14.10
19666;BMP180;9980;51.020;7.772;2022-09-17T06:20:02;97190.00;;;14.20
19666;BMP180;9980;51.020;7.772;2022-09-17T06:22:31;97185.00;;;14.20
19666;BMP180;9980;51.020;7.772;2022-09-17T06:24:58;97188.00;;;14.20
19666;BMP180;9980;51.020;7.772;2022-09-17T06:27:34;97191.00;;;14.20
19666;BMP180;9980;51.020;7.772;2022-09-17T06:30:01;97204.00;;;14.30
19666;BMP180;9980;51.020;7.772;2022-09-17T06:32:28;97200.00;;;14.30
19666;BMP180;9980;51.020;7.772;2022-09-17T06:34:55;97201.00;;;14.30
19666;BMP180;9980;51.020;7.772;2022-09-17T06:37:31;97207.00;;;14.30
19666;BMP180;9980;51.020;7.772;2022-09-17T06:39:59;97194.00;;;14.30
19666;BMP180;9980;51.020;7.772;2022-09-17T06:42:26;97215.00;;;14.40
19666;BMP180;9980;51.020;7.772;2022-09-17T06:44:55;97201.00;;;14.40
19666;BMP180;9980;51.020;7.772;2022-09-17T06:47:25;97206.00;;;14.40
19666;BMP180;9980;51.020;7.772;2022-09-17T06:49:53;97205.00;;;14.40
19666;BMP180;9980;51.020;7.772;2022-09-17T06:52:22;97191.00;;;14.40
19666;BMP180;9980;51.020;7.772;2022-09-17T06:54:49;97188.00;;;14.40
19666;BMP180;9980;51.020;7.772;2022-09-17T06:57:16;97199.00;;;14.50
19666;BMP180;9980;51.020;7.772;2022-09-17T06:59:43;97212.00;;;14.50
19666;BMP180;9980;51.020;7.772;2022-09-17T07:02:10;97214.00;;;14.60
19666;BMP180;9980;51.020;7.772;2022-09-17T07:04:37;97219.00;;;14.60
19666;BMP180;9980;51.020;7.772;2022-09-17T07:07:04;97205.00;;;14.60
19666;BMP180;9980;51.020;7.772;2022-09-17T07:09:31;97227.00;;;14.60
19666;BMP180;9980;51.020;7.772;2022-09-17T07:11:58;97218.00;;;14.70
19666;BMP180;9980;51.020;7.772;2022-09-17T07:14:25;97216.00;;;14.70
19666;BMP180;9980;51.020;7.772;2022-09-17T07:16:52;97217.00;;;14.80
19666;BMP180;9980;51.020;7.772;2022-09-17T07:19:19;97206.00;;;14.80
19666;BMP180;9980;51.020;7.772;2022-09-17T07:21:47;97215.00;;;14.90
19666;BMP180;9980;51.020;7.772;2022-09-17T07:24:14;97215.00;;;15.00
19666;BMP180;9980;51.020;7.772;2022-09-17T07:26:41;97231.00;;;15.10
19666;BMP180;9980;51.020;7.772;2022-09-17T07:29:08;97203.00;;;15.20
19666;BMP180;9980;51.020;7.772;2022-09-17T07:31:35;97214.00;;;15.30
19666;BMP180;9980;51.020;7.772;2022-09-17T07:34:02;97209.00;;;15.30
19666;BMP180;9980;51.020;7.772;2022-09-17T07:36:29;97219.00;;;15.30
19666;BMP180;9980;51.020;7.772;2022-09-17T07:38:56;97209.00;;;15.40
19666;BMP180;9980;51.020;7.772;2022-09-17T07:41:23;97216.00;;;15.40
19666;BMP180;9980;51.020;7.772;2022-09-17T07:43:52;97215.00;;;15.40
19666;BMP180;9980;51.020;7.772;2022-09-17T07:46:21;97212.00;;;15.40
19666;BMP180;9980;51.020;7.772;2022-09-17T07:48:48;97209.00;;;15.40
19666;BMP180;9980;51.020;7.772;2022-09-17T07:51:19;97223.00;;;15.40
19666;BMP180;9980;51.020;7.772;2022-09-17T07:53:54;97223.00;;;15.40
19666;BMP180;9980;51.020;7.772;2022-09-17T07:56:22;97229.00;;;15.30
19666;BMP180;9980;51.020;7.772;2022-09-17T07:58:51;97218.00;;;15.30
19666;BMP180;9980;51.020;7.772;2022-09-17T08:01:18;97225.00;;;15.30
19666;BMP180;9980;51.020;7.772;2022-09-17T08:03:50;97225.00;;;15.30
19666;BMP180;9980;51.020;7.772;2022-09-17T08:06:26;97220.00;;;15.00
19666;BMP180;9980;51.020;7.772;2022-09-17T08:08:56;97218.00;;;15.20
19666;BMP180;9980;51.020;7.772;2022-09-17T08:11:26;97209.00;;;15.20
19666;BMP180;9980;51.020;7.772;2022-09-17T08:14:14;97219.00;;;15.20
19666;BMP180;9980;51.020;7.772;2022-09-17T08:16:42;97211.00;;;15.20
19666;BMP180;9980;51.020;7.772;2022-09-17T08:19:11;97218.00;;;15.20
19666;BMP180;9980;51.020;7.772;2022-09-17T08:21:38;97205.00;;;15.20
19666;BMP180;9980;51.020;7.772;2022-09-17T08:24:05;97211.00;;;15.30
19666;BMP180;9980;51.020;7.772;2022-09-17T08:26:32;97215.00;;;15.30
19666;BMP180;9980;51.020;7.772;2022-09-17T08:28:59;97207.00;;;15.30
19666;BMP180;9980;51.020;7.772;2022-09-17T08:31:26;97221.00;;;15.40
19666;BMP180;9980;51.020;7.772;2022-09-17T08:33:58;97219.00;;;15.50
19666;BMP180;9980;51.020;7.772;2022-09-17T08:36:27;97209.00;;;15.50
19666;BMP180;9980;51.020;7.772;2022-09-17T08:38:55;97212.00;;;15.60
19666;BMP180;9980;51.020;7.772;2022-09-17T08:41:51;97217.00;;;15.60
19666;BMP180;9980;51.020;7.772;2022-09-17T08:44:33;97214.00;;;15.80
19666;BMP180;9980;51.020;7.772;2022-09-17T08:47:29;97222.00;;;15.80
19666;BMP180;9980;51.020;7.772;2022-09-17T08:50:15;97231.00;;;16.00
19666;BMP180;9980;51.020;7.772;2022-09-17T08:56:00;97222.00;;;16.10
19666;BMP180;9980;51.020;7.772;2022-09-17T08:58:39;97228.00;;;16.30
19666;BMP180;9980;51.020;7.772;2022-09-17T09:01:44;97223.00;;;16.30
19666;BMP180;9980;51.020;7.772;2022-09-17T09:04:31;97226.00;;;16.30
19666;BMP180;9980;51.020;7.772;2022-09-17T09:07:07;97228.00;;;16.30
19666;BMP180;9980;51.020;7.772;2022-09-17T09:09:48;97227.00;;;16.30
19666;BMP180;9980;51.020;7.772;2022-09-17T09:12:31;97225.00;;;16.30
19666;BMP180;9980;51.020;7.772;2022-09-17T09:17:50;97215.00;;;16.40
19666;BMP180;9980;51.020;7.772;2022-09-17T09:20:56;97225.00;;;16.30
19666;BMP180;9980;51.020;7.772;2022-09-17T09:29:21;97245.00;;;16.50
19666;BMP180;9980;51.020;7.772;2022-09-17T09:35:23;97228.00;;;16.60
19666;BMP180;9980;51.020;7.772;2022-09-17T09:38:13;97244.00;;;16.60
19666;BMP180;9980;51.020;7.772;2022-09-17T09:40:56;97211.00;;;16.70
19666;BMP180;9980;51.020;7.772;2022-09-17T09:44:03;97218.00;;;16.70
19666;BMP180;9980;51.020;7.772;2022-09-17T09:55:59;97232.00;;;16.90
19666;BMP180;9980;51.020;7.772;2022-09-17T09:58:39;97233.00;;;17.00
19666;BMP180;9980;51.020;7.772;2022-09-17T10:01:26;97226.00;;;17.00
19666;BMP180;9980;51.020;7.772;2022-09-17T10:03:54;97234.00;;;17.10
19666;BMP180;9980;51.020;7.772;2022-09-17T10:06:28;97207.00;;;17.20
19666;BMP180;9980;51.020;7.772;2022-09-17T10:11:26;97210.00;;;17.20
19666;BMP180;9980;51.020;7.772;2022-09-17T10:14:30;97224.00;;;17.30
19666;BMP180;9980;51.020;7.772;2022-09-17T10:17:24;97208.00;;;17.30
19666;BMP180;9980;51.020;7.772;2022-09-17T10:20:15;97212.00;;;17.40
19666;BMP180;9980;51.020;7.772;2022-09-17T10:22:48;97202.00;;;17.60
19666;BMP180;9980;51.020;7.772;2022-09-17T10:25:41;97220.00;;;17.60
19666;BMP180;9980;51.020;7.772;2022-09-17T10:31:06;97212.00;;;17.80
19666;BMP180;9980;51.020;7.772;2022-09-17T10:34:03;97209.00;;;17.80
19666;BMP180;9980;51.020;7.772;2022-09-17T10:36:43;97212.00;;;18.00
19666;BMP180;9980;51.020;7.772;2022-09-17T10:39:29;97200.00;;;18.00
19666;BMP180;9980;51.020;7.772;2022-09-17T10:42:04;97213.00;;;18.00
19666;BMP180;9980;51.020;7.772;2022-09-17T10:44:35;97217.00;;;18.00
19666;BMP180;9980;51.020;7.772;2022-09-17T10:47:20;97206.00;;;18.00
19666;BMP180;9980;51.020;7.772;2022-09-17T10:49:56;97219.00;;;18.00
19666;BMP180;9980;51.020;7.772;2022-09-17T10:52:31;97191.00;;;18.10
19666;BMP180;9980;51.020;7.772;2022-09-17T10:58:14;97229.00;;;18.00
19666;BMP180;9980;51.020;7.772;2022-09-17T11:03:47;97196.00;;;18.00
19666;BMP180;9980;51.020;7.772;2022-09-17T11:09:38;97191.00;;;18.10
19666;BMP180;9980;51.020;7.772;2022-09-17T11:12:36;97183.00;;;18.20
19666;BMP180;9980;51.020;7.772;2022-09-17T11:18:38;97192.00;;;18.30
19666;BMP180;9980;51.020;7.772;2022-09-17T11:24:38;97216.00;;;18.30
19666;BMP180;9980;51.020;7.772;2022-09-17T11:30:18;97211.00;;;18.20
19666;BMP180;9980;51.020;7.772;2022-09-17T11:33:17;97216.00;;;18.20
19666;BMP180;9980;51.020;7.772;2022-09-17T11:36:01;97208.00;;;18.20
19666;BMP180;9980;51.020;7.772;2022-09-17T11:38:40;97218.00;;;18.20
19666;BMP180;9980;51.020;7.772;2022-09-17T11:44:08;97204.00;;;18.30
19666;BMP180;9980;51.020;7.772;2022-09-17T11:49:45;97197.00;;;18.40
19666;BMP180;9980;51.020;7.772;2022-09-17T11:52:30;97198.00;;;18.40
19666;BMP180;9980;51.020;7.772;2022-09-17T11:55:09;97208.00;;;18.40
19666;BMP180;9980;51.020;7.772;2022-09-17T11:57:43;97205.00;;;18.40
19666;BMP180;9980;51.020;7.772;2022-09-17T12:00:17;97202.00;;;18.40
19666;BMP180;9980;51.020;7.772;2022-09-17T12:03:18;97212.00;;;18.30
19666;BMP180;9980;51.020;7.772;2022-09-17T12:05:55;97208.00;;;18.30
19666;BMP180;9980;51.020;7.772;2022-09-17T12:08:59;97198.00;;;18.20
19666;BMP180;9980;51.020;7.772;2022-09-17T12:11:40;97211.00;;;18.20
19666;BMP180;9980;51.020;7.772;2022-09-17T12:14:24;97219.00;;;18.20
19666;BMP180;9980;51.020;7.772;2022-09-17T12:16:57;97227.00;;;18.10
19666;BMP180;9980;51.020;7.772;2022-09-17T12:19:32;97220.00;;;18.10
19666;BMP180;9980;51.020;7.772;2022-09-17T12:22:22;97213.00;;;18.00
19666;BMP180;9980;51.020;7.772;2022-09-17T12:24:51;97224.00;;;18.00
19666;BMP180;9980;51.020;7.772;2022-09-17T12:27:35;97237.00;;;18.00
19666;BMP180;9980;51.020;7.772;2022-09-17T12:30:14;97235.00;;;17.90
19666;BMP180;9980;51.020;7.772;2022-09-17T12:35:49;97231.00;;;17.80
19666;BMP180;9980;51.020;7.772;2022-09-17T12:42:37;97247.00;;;17.60
19666;BMP180;9980;51.020;7.772;2022-09-17T12:45:14;97237.00;;;17.50
19666;BMP180;9980;51.020;7.772;2022-09-17T12:51:23;97216.00;;;17.30
19666;BMP180;9980;51.020;7.772;2022-09-17T13:00:04;97238.00;;;17.10
19666;BMP180;9980;51.020;7.772;2022-09-17T13:21:12;97215.00;;;16.80
19666;BMP180;9980;51.020;7.772;2022-09-17T13:23:47;97220.00;;;16.80
19666;BMP180;9980;51.020;7.772;2022-09-17T13:26:19;97209.00;;;16.90
19666;BMP180;9980;51.020;7.772;2022-09-17T13:28:51;97208.00;;;16.90
19666;BMP180;9980;51.020;7.772;2022-09-17T13:34:02;97214.00;;;17.00
19666;BMP180;9980;51.020;7.772;2022-09-17T13:36:51;97206.00;;;17.10
19666;BMP180;9980;51.020;7.772;2022-09-17T13:39:48;97201.00;;;17.10
19666;BMP180;9980;51.020;7.772;2022-09-17T13:42:51;97207.00;;;17.20
19666;BMP180;9980;51.020;7.772;2022-09-17T13:45:25;97198.00;;;17.30
19666;BMP180;9980;51.020;7.772;2022-09-17T13:48:10;97199.00;;;17.30
19666;BMP180;9980;51.020;7.772;2022-09-17T13:50:41;97199.00;;;17.40
19666;BMP180;9980;51.020;7.772;2022-09-17T13:55:50;97189.00;;;17.50
19666;BMP180;9980;51.020;7.772;2022-09-17T14:08:50;97174.00;;;17.80
19666;BMP180;9980;51.020;7.772;2022-09-17T14:24:46;97186.00;;;17.90
19666;BMP180;9980;51.020;7.772;2022-09-17T14:30:28;97199.00;;;17.90
19666;BMP180;9980;51.020;7.772;2022-09-17T14:33:15;97205.00;;;17.90
19666;BMP180;9980;51.020;7.772;2022-09-17T14:35:55;97187.00;;;17.90
19666;BMP180;9980;51.020;7.772;2022-09-17T14:38:40;97188.00;;;17.90
19666;BMP180;9980;51.020;7.772;2022-09-17T14:46:34;97189.00;;;17.80
19666;BMP180;9980;51.020;7.772;2022-09-17T14:49:24;97196.00;;;17.80
19666;BMP180;9980;51.020;7.772;2022-09-17T14:51:54;97207.00;;;17.70
19666;BMP180;9980;51.020;7.772;2022-09-17T14:56:56;97219.00;;;17.70
19666;BMP180;9980;51.020;7.772;2022-09-17T14:59:57;97233.00;;;17.50
19666;BMP180;9980;51.020;7.772;2022-09-17T15:02:40;97258.00;;;17.40
19666;BMP180;9980;51.020;7.772;2022-09-17T15:05:24;97276.00;;;17.20
19666;BMP180;9980;51.020;7.772;2022-09-17T15:08:16;97257.00;;;17.00
19666;BMP180;9980;51.020;7.772;2022-09-17T15:10:53;97242.00;;;16.90
19666;BMP180;9980;51.020;7.772;2022-09-17T15:13:27;97241.00;;;16.80
19666;BMP180;9980;51.020;7.772;2022-09-17T15:16:12;97225.00;;;16.70
19666;BMP180;9980;51.020;7.772;2022-09-17T15:18:53;97224.00;;;16.60
19666;BMP180;9980;51.020;7.772;2022-09-17T15:21:40;97223.00;;;16.50
19666;BMP180;9980;51.020;7.772;2022-09-17T15:26:57;97204.00;;;16.40
19666;BMP180;9980;51.020;7.772;2022-09-17T15:29:29;97202.00;;;16.40
19666;BMP180;9980;51.020;7.772;2022-09-17T15:31:58;97227.00;;;16.40
19666;BMP180;9980;51.020;7.772;2022-09-17T15:34:25;97211.00;;;16.40
19666;BMP180;9980;51.020;7.772;2022-09-17T15:37:24;97222.00;;;16.40
19666;BMP180;9980;51.020;7.772;2022-09-17T15:39:52;97218.00;;;16.30
19666;BMP180;9980;51.020;7.772;2022-09-17T15:42:29;97217.00;;;16.30
19666;BMP180;9980;51.020;7.772;2022-09-17T15:45:20;97233.00;;;16.30
19666;BMP180;9980;51.020;7.772;2022-09-17T15:47:56;97215.00;;;16.30
19666;BMP180;9980;51.020;7.772;2022-09-17T15:50:30;97216.00;;;16.30
19666;BMP180;9980;51.020;7.772;2022-09-17T15:55:42;97218.00;;;16.30
19666;BMP180;9980;51.020;7.772;2022-09-17T15:58:30;97223.00;;;16.20
19666;BMP180;9980;51.020;7.772;2022-09-17T16:08:48;97227.00;;;16.20
19666;BMP180;9980;51.020;7.772;2022-09-17T16:11:21;97223.00;;;16.20
19666;BMP180;9980;51.020;7.772;2022-09-17T16:13:51;97237.00;;;16.10
19666;BMP180;9980;51.020;7.772;2022-09-17T16:16:26;97238.00;;;16.10
19666;BMP180;9980;51.020;7.772;2022-09-17T16:18:53;97233.00;;;16.10
19666;BMP180;9980;51.020;7.772;2022-09-17T16:21:20;97224.00;;;16.10
19666;BMP180;9980;51.020;7.772;2022-09-17T16:23:47;97233.00;;;16.10
19666;BMP180;9980;51.020;7.772;2022-09-17T16:26:19;97232.00;;;16.00
19666;BMP180;9980;51.020;7.772;2022-09-17T16:28:49;97199.00;;;16.00
19666;BMP180;9980;51.020;7.772;2022-09-17T16:31:19;97222.00;;;16.00
19666;BMP180;9980;51.020;7.772;2022-09-17T16:33:46;97228.00;;;16.00
19666;BMP180;9980;51.020;7.772;2022-09-17T16:36:17;97243.00;;;15.90
19666;BMP180;9980;51.020;7.772;2022-09-17T16:38:44;97242.00;;;15.90
19666;BMP180;9980;51.020;7.772;2022-09-17T16:41:11;97227.00;;;15.90
19666;BMP180;9980;51.020;7.772;2022-09-17T16:43:38;97222.00;;;15.90
19666;BMP180;9980;51.020;7.772;2022-09-17T16:46:08;97232.00;;;15.80
19666;BMP180;9980;51.020;7.772;2022-09-17T16:48:39;97233.00;;;15.80
19666;BMP180;9980;51.020;7.772;2022-09-17T16:51:08;97236.00;;;15.80
19666;BMP180;9980;51.020;7.772;2022-09-17T16:53:36;97218.00;;;15.80
19666;BMP180;9980;51.020;7.772;2022-09-17T16:56:12;97246.00;;;15.70
19666;BMP180;9980;51.020;7.772;2022-09-17T16:58:39;97242.00;;;15.70
19666;BMP180;9980;51.020;7.772;2022-09-17T17:01:15;97227.00;;;15.60
19666;BMP180;9980;51.020;7.772;2022-09-17T17:03:42;97234.00;;;15.60
19666;BMP180;9980;51.020;7.772;2022-09-17T17:06:16;97236.00;;;15.50
19666;BMP180;9980;51.020;7.772;2022-09-17T17:08:43;97240.00;;;15.50
19666;BMP180;9980;51.020;7.772;2022-09-17T17:11:10;97248.00;;;15.40
19666;BMP180;9980;51.020;7.772;2022-09-17T17:13:37;97247.00;;;15.30
19666;BMP180;9980;51.020;7.772;2022-09-17T17:16:09;97266.00;;;15.30
19666;BMP180;9980;51.020;7.772;2022-09-17T17:18:37;97270.00;;;15.30
19666;BMP180;9980;51.020;7.772;2022-09-17T17:21:09;97256.00;;;15.20
19666;BMP180;9980;51.020;7.772;2022-09-17T17:23:37;97247.00;;;15.20
19666;BMP180;9980;51.020;7.772;2022-09-17T17:26:04;97265.00;;;15.10
19666;BMP180;9980;51.020;7.772;2022-09-17T17:28:35;97254.00;;;15.10
19666;BMP180;9980;51.020;7.772;2022-09-17T17:31:03;97256.00;;;15.00
19666;BMP180;9980;51.020;7.772;2022-09-17T17:33:30;97243.00;;;15.00
19666;BMP180;9980;51.020;7.772;2022-09-17T17:36:02;97247.00;;;14.90
19666;BMP180;9980;51.020;7.772;2022-09-17T17:38:35;97259.00;;;14.90
19666;BMP180;9980;51.020;7.772;2022-09-17T17:41:05;97237.00;;;14.80
19666;BMP180;9980;51.020;7.772;2022-09-17T17:43:33;97249.00;;;14.80
19666;BMP180;9980;51.020;7.772;2022-09-17T17:46:00;97254.00;;;14.80
19666;BMP180;9980;51.020;7.772;2022-09-17T17:48:27;97273.00;;;14.80
19666;BMP180;9980;51.020;7.772;2022-09-17T17:50:54;97257.00;;;14.70
19666;BMP180;9980;51.020;7.772;2022-09-17T17:53:26;97268.00;;;14.70
19666;BMP180;9980;51.020;7.772;2022-09-17T17:56:03;97286.00;;;14.70
19666;BMP180;9980;51.020;7.772;2022-09-17T17:58:32;97266.00;;;14.60
19666;BMP180;9980;51.020;7.772;2022-09-17T18:01:08;97283.00;;;14.60
19666;BMP180;9980;51.020;7.772;2022-09-17T18:03:36;97278.00;;;14.60
19666;BMP180;9980;51.020;7.772;2022-09-17T18:06:05;97265.00;;;14.50